createdAt,value
2023-01-23T00:00:55.389Z,2.87
2023-01-23T00:03:21.930Z,3.03
2023-01-23T00:06:10.643Z,2.60
2023-01-23T00:08:37.977Z,2.73
2023-01-23T00:11:06.977Z,2.53
2023-01-23T00:13:35.139Z,3.07
2023-01-23T00:16:22.902Z,2.17
2023-01-23T00:18:50.264Z,3.10
2023-01-23T00:21:20.239Z,2.40
2023-01-23T00:23:53.938Z,2.90
2023-01-23T00:26:26.678Z,2.70
2023-01-23T00:28:54.073Z,2.17
2023-01-23T00:31:25.212Z,2.20
2023-01-23T00:34:03.697Z,2.80
2023-01-23T00:36:34.304Z,2.77
2023-01-23T00:39:01.100Z,2.33
2023-01-23T00:41:27.789Z,2.73
2023-01-23T00:43:54.410Z,2.30
2023-01-23T00:46:21.526Z,2.10
2023-01-23T00:48:48.891Z,2.57
2023-01-23T00:51:15.792Z,2.47
2023-01-23T00:53:42.980Z,2.77
2023-01-23T00:56:09.539Z,1.97
2023-01-23T00:58:36.423Z,2.53
2023-01-23T01:01:03.059Z,2.80
2023-01-23T01:03:29.598Z,2.00
2023-01-23T01:05:56.315Z,2.30
2023-01-23T01:08:22.840Z,2.50
2023-01-23T01:10:50.212Z,2.40
2023-01-23T01:13:21.141Z,2.57
2023-01-23T01:15:48.711Z,2.23
2023-01-23T01:18:15.678Z,2.90
2023-01-23T01:20:43.085Z,2.50
2023-01-23T01:23:10.744Z,2.37
2023-01-23T01:25:37.468Z,2.23
2023-01-23T01:28:04.615Z,2.77
2023-01-23T01:30:31.151Z,2.70
2023-01-23T01:32:57.740Z,2.37
2023-01-23T01:35:24.700Z,2.73
2023-01-23T01:37:51.541Z,2.17
2023-01-23T01:40:24.636Z,2.17
2023-01-23T01:42:59.428Z,2.90
2023-01-23T01:46:04.232Z,3.03
2023-01-23T01:48:36.591Z,2.60
2023-01-23T01:51:24.715Z,2.77
2023-01-23T01:54:04.418Z,3.10
2023-01-23T01:56:47.509Z,3.13
2023-01-23T01:59:15.163Z,2.70
2023-01-23T02:01:44.229Z,3.10
2023-01-23T02:04:11.190Z,3.10
2023-01-23T02:06:38.265Z,3.30
2023-01-23T02:09:11.359Z,2.80
2023-01-23T02:11:37.920Z,2.50
2023-01-23T02:14:05.030Z,2.60
2023-01-23T02:16:40.212Z,3.13
2023-01-23T02:19:19.541Z,2.93
2023-01-23T02:21:49.939Z,3.33
2023-01-23T02:24:34.568Z,2.80
2023-01-23T02:27:03.086Z,3.00
2023-01-23T02:29:44.879Z,3.17
2023-01-23T02:32:12.129Z,2.50
2023-01-23T02:34:38.728Z,3.13
2023-01-23T02:37:06.929Z,3.07
2023-01-23T02:39:33.578Z,3.10
2023-01-23T02:42:01.444Z,3.17
2023-01-23T02:44:40.742Z,3.63
2023-01-23T02:47:12.047Z,3.20
2023-01-23T02:49:40.651Z,3.93
2023-01-23T02:52:09.615Z,3.50
2023-01-23T02:54:36.767Z,3.97
2023-01-23T02:57:03.428Z,3.60
2023-01-23T02:59:49.353Z,3.57
2023-01-23T03:02:16.028Z,3.53
2023-01-23T03:04:42.677Z,3.73
2023-01-23T03:07:09.203Z,4.03
2023-01-23T03:09:35.894Z,3.53
2023-01-23T03:12:02.796Z,3.77
2023-01-23T03:14:30.053Z,4.47
2023-01-23T03:16:56.707Z,4.10
2023-01-23T03:19:29.438Z,3.40
2023-01-23T03:21:56.597Z,3.57
2023-01-23T03:24:23.436Z,3.70
2023-01-23T03:26:51.125Z,3.07
2023-01-23T03:29:40.939Z,3.13
2023-01-23T03:32:08.373Z,3.90
2023-01-23T03:34:35.380Z,2.87
2023-01-23T03:37:03.367Z,3.70
2023-01-23T03:39:50.784Z,3.60
2023-01-23T03:42:18.586Z,4.37
2023-01-23T03:44:46.948Z,4.03
2023-01-23T03:47:13.648Z,3.67
2023-01-23T03:49:40.258Z,3.90
2023-01-23T03:52:07.470Z,3.80
2023-01-23T03:54:34.640Z,3.40
2023-01-23T03:57:01.537Z,3.67
2023-01-23T03:59:46.517Z,3.70
2023-01-23T04:02:13.853Z,4.87
2023-01-23T04:04:40.431Z,3.97
2023-01-23T04:07:08.966Z,4.27
2023-01-23T04:09:37.248Z,4.47
2023-01-23T04:12:04.572Z,5.37
2023-01-23T04:14:37.332Z,4.87
2023-01-23T04:17:05.957Z,4.50
2023-01-23T04:19:32.560Z,4.03
2023-01-23T04:21:59.089Z,4.23
2023-01-23T04:24:26.484Z,4.93
2023-01-23T04:26:53.705Z,4.13
2023-01-23T04:29:20.372Z,4.43
2023-01-23T04:31:47.427Z,3.73
2023-01-23T04:34:14.581Z,5.10
2023-01-23T04:36:42.413Z,4.37
2023-01-23T04:39:09.019Z,4.00
2023-01-23T04:41:37.421Z,3.60
2023-01-23T04:44:22.800Z,4.97
2023-01-23T04:47:10.117Z,4.37
2023-01-23T04:49:37.044Z,4.67
2023-01-23T04:52:04.587Z,5.03
2023-01-23T04:54:35.412Z,3.60
2023-01-23T04:57:02.053Z,4.03
2023-01-23T04:59:29.827Z,3.87
2023-01-23T05:01:56.603Z,3.77
2023-01-23T05:04:24.169Z,9.77
2023-01-23T05:06:50.786Z,5.77
2023-01-23T05:09:17.694Z,6.80
2023-01-23T05:11:50.015Z,5.40
2023-01-23T05:14:17.752Z,4.70
2023-01-23T05:16:46.654Z,4.67
2023-01-23T05:19:15.852Z,4.93
2023-01-23T05:21:43.024Z,4.97
2023-01-23T05:24:16.817Z,5.10
2023-01-23T05:26:44.421Z,5.17
2023-01-23T05:29:11.003Z,4.80
2023-01-23T05:31:46.332Z,4.30
2023-01-23T05:34:33.048Z,6.13
2023-01-23T05:37:02.959Z,5.90
2023-01-23T05:39:32.991Z,5.07
2023-01-23T05:42:00.383Z,6.73
2023-01-23T05:45:02.454Z,4.70
2023-01-23T05:47:37.001Z,6.47
2023-01-23T05:50:07.921Z,8.53
2023-01-23T05:52:36.377Z,9.47
2023-01-23T05:55:03.823Z,12.90
2023-01-23T05:57:31.783Z,7.50
2023-01-23T06:00:17.608Z,5.70
2023-01-23T06:03:04.227Z,5.57
2023-01-23T06:05:48.966Z,5.43
2023-01-23T06:08:18.376Z,5.50
2023-01-23T06:10:44.951Z,5.13
2023-01-23T06:13:11.896Z,4.83
2023-01-23T06:15:38.658Z,4.63
2023-01-23T06:18:10.307Z,5.53
2023-01-23T06:20:36.816Z,5.67
2023-01-23T06:23:03.502Z,6.03
2023-01-23T06:25:30.335Z,5.40
2023-01-23T06:27:59.129Z,5.17
2023-01-23T06:30:28.503Z,4.97
2023-01-23T06:32:55.846Z,5.77
2023-01-23T06:35:30.156Z,5.73
2023-01-23T06:37:56.696Z,4.53
2023-01-23T06:40:23.961Z,4.47
2023-01-23T06:43:11.607Z,4.90
2023-01-23T06:45:38.419Z,4.77
2023-01-23T06:48:05.166Z,4.50
2023-01-23T06:50:31.794Z,4.93
2023-01-23T06:52:58.338Z,5.37
2023-01-23T06:55:24.881Z,5.30
2023-01-23T06:57:51.966Z,5.43
2023-01-23T07:00:19.436Z,5.00
2023-01-23T07:02:46.614Z,5.87
2023-01-23T07:05:13.232Z,5.13
2023-01-23T07:07:43.352Z,4.90
2023-01-23T07:10:10.645Z,5.97
2023-01-23T07:12:38.120Z,4.83
2023-01-23T07:15:07.084Z,5.30
2023-01-23T07:17:38.373Z,4.13
2023-01-23T07:20:05.824Z,5.10
2023-01-23T07:22:36.389Z,4.53
2023-01-23T07:25:02.995Z,4.90
2023-01-23T07:27:29.882Z,4.53
2023-01-23T07:29:56.419Z,5.17
2023-01-23T07:32:22.938Z,4.13
2023-01-23T07:34:49.520Z,5.03
2023-01-23T07:37:16.033Z,5.43
2023-01-23T07:39:43.031Z,4.67
2023-01-23T07:42:10.130Z,5.40
2023-01-23T07:44:40.933Z,5.60
2023-01-23T07:47:07.521Z,5.70
2023-01-23T07:49:33.987Z,5.00
2023-01-23T07:52:00.906Z,4.83
2023-01-23T07:54:27.975Z,5.07
2023-01-23T07:56:54.573Z,4.80
2023-01-23T07:59:21.090Z,4.87
2023-01-23T08:01:49.392Z,5.23
2023-01-23T08:04:15.922Z,4.67
2023-01-23T08:06:42.599Z,5.27
2023-01-23T08:09:09.440Z,5.77
2023-01-23T08:11:36.019Z,5.40
2023-01-23T08:14:02.601Z,5.20
2023-01-23T08:16:29.188Z,5.50
2023-01-23T08:18:56.042Z,5.60
2023-01-23T08:21:22.583Z,6.60
2023-01-23T08:23:49.178Z,5.63
2023-01-23T08:26:17.819Z,5.00
2023-01-23T08:28:45.868Z,5.70
2023-01-23T08:31:13.406Z,5.63
2023-01-23T08:33:40.349Z,6.20
2023-01-23T08:36:10.918Z,6.20
2023-01-23T08:38:38.103Z,6.33
2023-01-23T08:41:05.271Z,5.87
2023-01-23T08:43:32.809Z,6.00
2023-01-23T08:46:00.077Z,5.67
2023-01-23T08:48:28.651Z,6.27
2023-01-23T08:51:01.183Z,7.53
2023-01-23T08:53:28.582Z,6.63
2023-01-23T08:56:08.268Z,7.10
2023-01-23T08:58:35.826Z,6.80
2023-01-23T09:01:02.440Z,6.20
2023-01-23T09:03:29.055Z,7.57
2023-01-23T09:05:55.592Z,8.17
2023-01-23T09:08:22.105Z,7.50
2023-01-23T09:10:48.609Z,9.23
2023-01-23T09:13:15.826Z,8.23
2023-01-23T09:15:42.648Z,8.83
2023-01-23T09:18:09.155Z,7.33
2023-01-23T09:20:38.112Z,7.20
2023-01-23T09:23:04.644Z,9.03
2023-01-23T09:25:31.524Z,9.70
2023-01-23T09:27:58.117Z,8.13
2023-01-23T09:30:24.700Z,9.40
2023-01-23T09:32:51.258Z,8.00
2023-01-23T09:35:17.931Z,9.03
2023-01-23T09:38:04.185Z,8.93
2023-01-23T09:40:35.438Z,9.30
2023-01-23T09:43:18.478Z,9.00
2023-01-23T09:45:58.962Z,9.87
2023-01-23T09:48:37.809Z,9.20
2023-01-23T09:51:13.122Z,9.73
2023-01-23T09:53:40.661Z,10.07
2023-01-23T09:56:28.444Z,10.07
2023-01-23T09:59:14.696Z,9.53
2023-01-23T10:01:41.530Z,9.47
2023-01-23T10:04:11.495Z,9.13
2023-01-23T10:06:58.508Z,11.00
2023-01-23T10:09:47.203Z,9.10
2023-01-23T10:12:32.660Z,9.17
2023-01-23T10:15:19.514Z,8.93
2023-01-23T10:17:58.417Z,9.43
2023-01-23T10:20:44.446Z,9.40
2023-01-23T10:23:38.101Z,8.90
2023-01-23T10:26:04.696Z,9.10
2023-01-23T10:28:43.505Z,8.20
2023-01-23T10:31:28.883Z,9.23
2023-01-23T10:34:18.127Z,7.20
2023-01-23T10:37:05.174Z,9.43
2023-01-23T10:39:43.425Z,9.13
2023-01-23T10:42:13.476Z,9.20
2023-01-23T10:44:40.099Z,8.67
2023-01-23T10:47:40.600Z,8.37
2023-01-23T10:50:10.158Z,9.77
2023-01-23T10:52:39.691Z,9.00
2023-01-23T10:55:26.917Z,10.13
2023-01-23T10:57:55.676Z,8.90
2023-01-23T11:00:27.745Z,8.53
2023-01-23T11:02:54.465Z,8.50
2023-01-23T11:05:51.118Z,9.17
2023-01-23T11:08:45.908Z,9.47
2023-01-23T11:11:15.656Z,8.30
2023-01-23T11:13:47.022Z,8.23
2023-01-23T11:16:19.880Z,9.40
2023-01-23T11:19:25.156Z,8.10
2023-01-23T11:21:56.267Z,8.40
2023-01-23T11:24:38.515Z,8.73
2023-01-23T11:27:17.048Z,8.63
2023-01-23T11:30:03.586Z,8.97
2023-01-23T11:32:35.162Z,7.80
2023-01-23T11:35:20.789Z,8.67
2023-01-23T11:37:47.767Z,9.27
2023-01-23T11:40:18.711Z,9.40
2023-01-23T11:42:46.113Z,10.13
2023-01-23T11:45:33.352Z,8.90
2023-01-23T11:48:14.238Z,9.20
2023-01-23T11:50:55.917Z,8.70
2023-01-23T11:53:42.369Z,10.30
2023-01-23T11:56:40.228Z,8.70
2023-01-23T11:59:29.708Z,9.50
2023-01-23T12:02:27.052Z,8.80
2023-01-23T12:05:08.553Z,9.87
2023-01-23T12:08:02.845Z,9.10
2023-01-23T12:10:45.811Z,9.53
2023-01-23T12:13:30.828Z,9.53
2023-01-23T12:16:02.509Z,10.73
2023-01-23T12:18:47.128Z,9.83
2023-01-23T12:21:30.524Z,9.90
2023-01-23T12:24:08.852Z,8.67
2023-01-23T12:26:45.175Z,10.30
2023-01-23T12:29:49.883Z,8.50
2023-01-23T12:32:41.330Z,9.53
2023-01-23T12:35:24.678Z,9.37
2023-01-23T12:37:58.954Z,9.73
2023-01-23T12:40:38.741Z,9.77
2023-01-23T12:43:14.537Z,9.43
2023-01-23T12:45:49.059Z,9.10
2023-01-23T12:48:47.590Z,10.37
2023-01-23T12:51:24.127Z,8.60
2023-01-23T12:53:57.546Z,9.63
2023-01-23T12:56:27.817Z,9.30
2023-01-23T12:59:25.671Z,10.10
2023-01-23T13:02:14.151Z,10.10
2023-01-23T13:04:55.621Z,10.50
2023-01-23T13:07:38.072Z,10.93
2023-01-23T13:10:49.145Z,12.03
2023-01-23T13:13:18.273Z,10.77
2023-01-23T13:16:04.511Z,10.87
2023-01-23T13:18:51.047Z,11.10
2023-01-23T13:21:36.111Z,10.27
2023-01-23T13:24:41.041Z,10.80
2023-01-23T13:27:34.878Z,9.80
2023-01-23T13:30:02.375Z,10.90
2023-01-23T13:32:29.794Z,10.43
2023-01-23T13:34:56.427Z,11.00
2023-01-23T13:37:28.972Z,10.97
2023-01-23T13:40:16.860Z,12.23
2023-01-23T13:42:43.788Z,10.43
2023-01-23T13:45:16.528Z,11.43
2023-01-23T14:22:10.883Z,12.30
2023-01-23T14:24:50.071Z,12.50
2023-01-23T14:27:52.216Z,12.80
2023-01-23T14:30:31.120Z,11.00
2023-01-23T14:32:59.199Z,10.20
2023-01-23T14:35:31.306Z,11.30
2023-01-23T14:38:00.197Z,11.70
2023-01-23T14:40:33.269Z,12.00
2023-01-23T14:43:07.841Z,11.80
2023-01-23T14:45:37.123Z,10.00
2023-01-23T14:48:07.572Z,10.23
2023-01-23T14:50:35.011Z,11.57
2023-01-23T14:53:07.569Z,11.50
2023-01-23T14:55:37.796Z,11.07
2023-01-23T14:58:05.014Z,11.63
2023-01-23T15:00:32.189Z,10.83
2023-01-23T15:02:58.766Z,11.33
2023-01-23T15:05:27.426Z,10.47
2023-01-23T15:08:01.282Z,10.00
2023-01-23T15:10:36.801Z,10.70
2023-01-23T15:13:09.728Z,11.10
2023-01-23T15:15:36.537Z,10.50
2023-01-23T15:18:15.258Z,11.57
2023-01-23T15:20:41.804Z,10.10
2023-01-23T15:23:38.696Z,10.40
2023-01-23T15:26:11.672Z,10.63
2023-01-23T15:28:41.673Z,10.57
2023-01-23T15:31:31.632Z,11.40
2023-01-23T15:34:16.599Z,10.90
2023-01-23T15:36:51.142Z,11.70
2023-01-23T15:39:29.626Z,12.00
2023-01-23T15:42:02.308Z,10.60
2023-01-23T15:44:31.056Z,10.50
2023-01-23T15:47:01.218Z,11.30
2023-01-23T15:49:28.751Z,9.93
2023-01-23T15:51:57.297Z,10.63
2023-01-23T15:54:28.434Z,11.30
2023-01-23T15:57:06.590Z,10.67
2023-01-23T15:59:34.660Z,9.70
2023-01-23T16:02:01.178Z,9.90
2023-01-23T16:04:27.697Z,9.30
2023-01-23T16:06:54.415Z,10.40
2023-01-23T16:09:30.426Z,9.83
2023-01-23T16:11:59.062Z,11.80
2023-01-23T16:14:25.629Z,10.87
2023-01-23T16:16:52.156Z,10.47
2023-01-23T16:19:18.759Z,10.73
2023-01-23T16:21:47.708Z,11.53
2023-01-23T16:24:23.961Z,10.80
2023-01-23T16:26:51.456Z,10.70
2023-01-23T16:29:28.908Z,12.77
2023-01-23T16:31:57.175Z,11.00
2023-01-23T16:34:23.763Z,12.03
2023-01-23T16:36:52.601Z,12.13
2023-01-23T16:39:22.801Z,12.27
2023-01-23T16:41:49.777Z,12.93
2023-01-23T16:44:18.756Z,12.53
2023-01-23T16:46:45.901Z,14.47
2023-01-23T16:49:14.006Z,13.17
2023-01-23T16:51:43.635Z,13.70
2023-01-23T16:54:18.659Z,13.43
2023-01-23T16:56:48.069Z,16.07
2023-01-23T16:59:19.117Z,13.80
2023-01-23T17:01:49.371Z,13.53
2023-01-23T17:04:19.584Z,13.57
2023-01-23T17:06:46.859Z,11.00
2023-01-23T17:09:14.300Z,13.30
2023-01-23T17:11:55.577Z,13.37
2023-01-23T17:14:28.204Z,15.00
2023-01-23T17:17:02.027Z,14.20
2023-01-23T17:19:31.726Z,13.60
2023-01-23T17:22:00.289Z,14.00
2023-01-23T17:24:27.187Z,12.67
2023-01-23T17:26:53.688Z,12.47
2023-01-23T17:29:20.723Z,11.27
2023-01-23T17:31:48.017Z,13.73
2023-01-23T17:34:24.067Z,12.80
2023-01-23T17:36:52.765Z,12.30
2023-01-23T17:39:20.647Z,13.07
2023-01-23T17:41:48.130Z,13.17
2023-01-23T17:44:14.640Z,12.63
2023-01-23T17:46:41.325Z,12.77
2023-01-23T17:49:29.071Z,13.33
2023-01-23T17:51:57.463Z,13.73
2023-01-23T17:54:24.345Z,11.87
2023-01-23T17:56:50.855Z,12.27
2023-01-23T17:59:17.393Z,12.93
2023-01-23T18:01:44.293Z,13.00
2023-01-23T18:04:19.331Z,12.30
2023-01-23T18:06:46.996Z,12.40
2023-01-23T18:09:14.118Z,12.50
2023-01-23T18:11:44.136Z,11.77
2023-01-23T18:14:33.046Z,12.10
2023-01-23T18:16:59.930Z,12.40
2023-01-23T18:19:27.543Z,11.90
2023-01-23T18:21:56.312Z,11.93
2023-01-23T18:24:29.923Z,12.67
2023-01-23T18:27:10.851Z,16.37
2023-01-23T18:30:14.996Z,12.97
2023-01-23T18:32:56.849Z,13.07
2023-01-23T18:35:23.724Z,12.20
2023-01-23T18:38:07.362Z,12.90
2023-01-23T18:41:05.796Z,13.20
2023-01-23T18:43:48.676Z,13.33
2023-01-23T18:46:17.652Z,12.90
2023-01-23T18:48:46.430Z,14.13
2023-01-23T18:51:45.331Z,13.10
2023-01-23T18:54:42.569Z,13.13
2023-01-23T18:57:36.775Z,13.47
2023-01-23T19:00:39.275Z,14.13
2023-01-23T19:03:14.653Z,11.00
2023-01-23T19:05:42.395Z,12.37
2023-01-23T19:08:28.120Z,12.90
2023-01-23T19:11:00.226Z,12.57
2023-01-23T19:13:43.699Z,14.17
2023-01-23T19:16:31.776Z,12.37
2023-01-23T19:19:15.757Z,13.37
2023-01-23T19:21:46.241Z,13.00
2023-01-23T19:24:15.237Z,14.10
2023-01-23T19:26:42.007Z,12.87
2023-01-23T19:29:21.028Z,12.50
2023-01-23T19:32:06.006Z,13.50
2023-01-23T19:34:34.007Z,12.10
2023-01-23T19:37:00.531Z,14.40
2023-01-23T19:39:27.318Z,13.07
2023-01-23T19:41:54.267Z,14.90
2023-01-23T19:44:23.940Z,14.20
2023-01-23T19:46:51.373Z,13.70
2023-01-23T19:49:18.408Z,11.77
2023-01-23T19:51:45.926Z,12.30
2023-01-23T19:54:14.275Z,13.60
2023-01-23T19:56:41.032Z,13.10
2023-01-23T19:59:07.743Z,13.80
2023-01-23T20:01:38.593Z,14.50
2023-01-23T20:04:06.932Z,14.33
2023-01-23T20:06:34.329Z,14.03
2023-01-23T20:09:00.981Z,14.10
2023-01-23T20:11:27.519Z,14.33
2023-01-23T20:13:54.523Z,13.40
2023-01-23T20:16:24.948Z,17.83
2023-01-23T20:18:53.968Z,17.93
2023-01-23T20:21:23.560Z,17.60
2023-01-23T20:23:50.991Z,16.80
2023-01-23T20:26:19.416Z,15.20
2023-01-23T20:28:50.996Z,13.13
2023-01-23T20:31:17.569Z,14.00
2023-01-23T20:33:44.484Z,14.40
2023-01-23T20:36:13.456Z,14.80
2023-01-23T20:38:40.635Z,13.00
2023-01-23T20:41:15.202Z,14.03
2023-01-23T20:43:45.099Z,15.20
2023-01-23T20:46:13.168Z,14.03
2023-01-23T20:48:43.757Z,12.80
2023-01-23T20:51:10.770Z,13.97
2023-01-23T20:53:39.778Z,14.17
2023-01-23T20:56:15.264Z,14.70
2023-01-23T20:59:06.423Z,15.23
2023-01-23T21:01:57.474Z,15.87
2023-01-23T21:04:26.925Z,12.77
2023-01-23T21:06:53.717Z,13.83
2023-01-23T21:09:20.795Z,15.00
2023-01-23T21:11:49.737Z,14.30
2023-01-23T21:14:16.927Z,15.50
2023-01-23T21:16:43.500Z,13.67
2023-01-23T21:19:10.007Z,15.13
2023-01-23T21:21:36.665Z,15.43
2023-01-23T21:24:03.285Z,15.23
2023-01-23T21:26:30.166Z,17.13
2023-01-23T21:28:57.736Z,13.73
2023-01-23T21:31:27.319Z,15.60
2023-01-23T21:33:54.339Z,16.90
2023-01-23T21:36:23.670Z,14.53
2023-01-23T21:39:02.364Z,15.13
2023-01-23T21:41:29.066Z,15.93
2023-01-23T21:43:55.615Z,15.23
2023-01-23T21:46:22.636Z,16.07
2023-01-23T21:48:49.235Z,15.83
2023-01-23T21:51:19.929Z,15.00
2023-01-23T21:53:48.996Z,14.67
2023-01-23T21:56:18.432Z,16.33
2023-01-23T21:58:47.360Z,14.63
2023-01-23T22:01:36.055Z,16.43
2023-01-23T22:04:11.649Z,15.57
2023-01-23T22:06:40.851Z,17.13
2023-01-23T22:09:08.363Z,16.80
2023-01-23T22:11:35.642Z,15.77
2023-01-23T22:14:02.620Z,16.53
2023-01-23T22:16:46.865Z,16.37
2023-01-23T22:19:15.502Z,17.37
2023-01-23T22:21:43.549Z,17.03
2023-01-23T22:24:10.145Z,17.50
2023-01-23T22:26:37.169Z,17.37
2023-01-23T22:29:03.667Z,18.10
2023-01-23T22:31:30.470Z,19.00
2023-01-23T22:33:57.097Z,15.30
2023-01-23T22:36:23.972Z,18.33
2023-01-23T22:38:54.806Z,16.47
2023-01-23T22:41:21.777Z,17.63
2023-01-23T22:43:54.228Z,18.37
2023-01-23T22:46:21.522Z,16.47
2023-01-23T22:48:48.169Z,18.30
2023-01-23T22:51:23.192Z,17.97
2023-01-23T22:53:51.455Z,17.00
2023-01-23T22:56:18.638Z,17.90
2023-01-23T22:58:49.372Z,16.00
2023-01-23T23:01:16.551Z,16.80
2023-01-23T23:03:44.045Z,16.90
2023-01-23T23:06:13.850Z,16.93
2023-01-23T23:08:40.902Z,18.30
2023-01-23T23:11:10.304Z,17.10
2023-01-23T23:13:38.923Z,16.70
2023-01-23T23:16:08.670Z,17.60
2023-01-23T23:18:37.459Z,18.07
2023-01-23T23:21:08.105Z,16.23
2023-01-23T23:23:35.079Z,17.63
2023-01-23T23:26:02.147Z,15.37
2023-01-23T23:28:29.152Z,17.67
2023-01-23T23:30:55.934Z,18.60
2023-01-23T23:33:22.507Z,16.90
2023-01-23T23:35:49.312Z,16.80
2023-01-23T23:38:16.483Z,15.23
2023-01-23T23:40:43.094Z,16.20
2023-01-23T23:43:09.954Z,15.60
2023-01-23T23:45:36.591Z,16.60
2023-01-23T23:48:03.249Z,15.30
2023-01-23T23:50:30.097Z,17.97
2023-01-23T23:52:57.069Z,15.27
2023-01-23T23:55:23.765Z,16.40
2023-01-23T23:57:50.343Z,14.03
